createdAt,value
2018-11-02T00:02:19.139Z,8.60
2018-11-02T00:04:48.059Z,8.60
2018-11-02T00:07:16.942Z,8.60
2018-11-02T00:09:45.790Z,8.70
2018-11-02T00:12:14.751Z,8.30
2018-11-02T00:14:43.618Z,8.40
2018-11-02T00:17:12.507Z,8.40
2018-11-02T00:19:41.371Z,8.40
2018-11-02T00:22:10.262Z,8.30
2018-11-02T00:24:39.227Z,8.60
2018-11-02T00:27:08.212Z,8.60
2018-11-02T00:29:37.154Z,8.60
2018-11-02T00:32:06.107Z,8.70
2018-11-02T00:34:34.913Z,8.40
2018-11-02T00:37:03.817Z,9.00
2018-11-02T00:39:32.709Z,8.90
2018-11-02T00:42:01.608Z,9.10
2018-11-02T00:44:30.442Z,8.80
2018-11-02T00:46:59.350Z,8.70
2018-11-02T00:49:28.230Z,9.00
2018-11-02T00:51:57.206Z,9.10
2018-11-02T00:54:26.158Z,9.20
2018-11-02T00:56:55.015Z,9.50
2018-11-02T00:59:23.975Z,9.20
2018-11-02T01:01:52.866Z,9.00
2018-11-02T01:04:22.782Z,8.30
2018-11-02T01:06:51.703Z,8.30
2018-11-02T01:09:20.667Z,8.40
2018-11-02T01:11:49.609Z,8.30
2018-11-02T01:14:18.454Z,8.50
2018-11-02T01:16:47.557Z,8.30
2018-11-02T01:19:16.354Z,8.40
2018-11-02T01:21:45.264Z,8.50
2018-11-02T01:24:14.154Z,8.80
2018-11-02T01:26:43.066Z,9.00
2018-11-02T01:29:11.935Z,9.10
2018-11-02T01:31:40.834Z,8.30
2018-11-02T01:34:09.698Z,8.00
2018-11-02T01:36:39.051Z,8.00
2018-11-02T01:39:09.714Z,8.30
2018-11-02T01:41:38.698Z,8.50
2018-11-02T01:44:07.663Z,8.30
2018-11-02T01:46:37.722Z,8.20
2018-11-02T01:49:06.941Z,8.40
2018-11-02T01:51:36.411Z,8.60
2018-11-02T01:54:05.382Z,8.70
2018-11-02T01:56:34.336Z,8.00
2018-11-02T01:59:03.202Z,8.00
2018-11-02T02:01:32.243Z,7.80
2018-11-02T02:04:01.067Z,7.50
2018-11-02T02:06:30.058Z,7.70
2018-11-02T02:08:58.950Z,7.80
2018-11-02T02:11:27.891Z,7.70
2018-11-02T02:13:56.783Z,7.70
2018-11-02T02:16:25.722Z,7.90
2018-11-02T02:18:54.648Z,7.90
2018-11-02T02:21:23.482Z,8.10
2018-11-02T02:23:52.397Z,8.20
2018-11-02T02:26:21.362Z,8.10
2018-11-02T02:28:50.288Z,7.80
2018-11-02T02:31:19.219Z,7.90
2018-11-02T02:33:48.473Z,7.90
2018-11-02T02:36:17.545Z,8.10
2018-11-02T02:38:46.630Z,7.90
2018-11-02T02:41:15.651Z,7.60
2018-11-02T02:43:44.535Z,7.80
2018-11-02T02:46:13.443Z,7.80
2018-11-02T02:48:42.404Z,7.60
2018-11-02T02:51:11.363Z,7.80
2018-11-02T02:53:40.214Z,7.90
2018-11-02T02:56:09.102Z,8.10
2018-11-02T02:58:38.062Z,8.00
2018-11-02T03:01:06.982Z,8.00
2018-11-02T03:03:35.905Z,8.00
2018-11-02T03:06:04.846Z,7.90
2018-11-02T03:08:33.781Z,7.80
2018-11-02T03:11:02.928Z,7.80
2018-11-02T03:13:31.639Z,8.00
2018-11-02T03:16:00.531Z,8.00
2018-11-02T03:18:29.500Z,8.00
2018-11-02T03:20:58.339Z,8.20
2018-11-02T03:23:27.202Z,8.50
2018-11-02T03:25:56.087Z,8.10
2018-11-02T03:28:24.981Z,8.30
2018-11-02T03:30:53.870Z,8.50
2018-11-02T03:33:22.827Z,8.80
2018-11-02T03:35:51.840Z,8.70
2018-11-02T03:38:20.970Z,8.80
2018-11-02T03:40:49.916Z,8.70
2018-11-02T03:43:18.910Z,9.00
2018-11-02T03:45:47.861Z,8.30
2018-11-02T03:48:16.892Z,8.10
2018-11-02T03:50:46.269Z,8.20
2018-11-02T03:53:15.378Z,8.20
2018-11-02T03:55:45.031Z,8.60
2018-11-02T03:58:14.011Z,8.40
2018-11-02T04:00:43.127Z,7.80
2018-11-02T04:03:13.456Z,7.90
2018-11-02T04:05:42.795Z,7.60
2018-11-02T04:08:13.063Z,8.10
2018-11-02T04:10:43.125Z,8.20
2018-11-02T04:13:12.055Z,8.10
2018-11-02T04:15:41.051Z,7.80
2018-11-02T04:18:10.334Z,7.50
2018-11-02T04:20:40.109Z,7.90
2018-11-02T04:23:10.103Z,8.10
2018-11-02T04:25:39.802Z,8.00
2018-11-02T04:28:10.862Z,8.60
2018-11-02T04:30:39.904Z,8.90
2018-11-02T04:33:10.026Z,8.70
2018-11-02T04:35:38.911Z,8.20
2018-11-02T04:38:07.974Z,7.90
2018-11-02T04:40:36.934Z,8.20
2018-11-02T04:43:05.931Z,8.10
2018-11-02T04:45:39.871Z,8.30
2018-11-02T04:48:10.816Z,8.70
2018-11-02T04:50:40.330Z,8.50
2018-11-02T04:53:09.251Z,8.50
2018-11-02T04:55:38.171Z,8.60
2018-11-02T04:58:07.002Z,8.30
2018-11-02T05:00:35.906Z,8.00
2018-11-02T05:03:05.494Z,8.40
2018-11-02T05:05:34.415Z,8.40
2018-11-02T05:08:03.330Z,8.70
2018-11-02T05:10:32.182Z,8.80
2018-11-02T05:13:01.122Z,9.00
2018-11-02T05:15:30.009Z,8.80
2018-11-02T05:17:58.962Z,8.90
2018-11-02T05:20:27.851Z,8.30
2018-11-02T05:22:56.808Z,8.00
2018-11-02T05:25:25.707Z,7.70
2018-11-02T05:27:54.638Z,7.60
2018-11-02T05:30:23.514Z,7.50
2018-11-02T05:32:52.412Z,7.50
2018-11-02T05:35:21.360Z,7.60
2018-11-02T05:37:50.434Z,7.70
2018-11-02T05:40:19.444Z,8.00
2018-11-02T05:42:48.366Z,8.30
2018-11-02T05:45:17.250Z,8.10
2018-11-02T05:47:46.483Z,8.30
2018-11-02T05:50:15.442Z,8.40
2018-11-02T05:52:44.407Z,8.20
2018-11-02T05:55:13.363Z,8.00
2018-11-02T05:57:42.204Z,8.10
2018-11-02T06:00:11.686Z,8.10
2018-11-02T06:02:40.638Z,8.50
2018-11-02T06:05:09.527Z,8.10
2018-11-02T06:07:38.786Z,8.30
2018-11-02T06:10:08.067Z,8.40
2018-11-02T06:12:37.260Z,8.40
2018-11-02T06:15:06.255Z,8.40
2018-11-02T06:17:35.207Z,8.20
2018-11-02T06:20:04.086Z,8.20
2018-11-02T06:22:32.974Z,7.90
2018-11-02T06:25:01.847Z,7.90
2018-11-02T06:27:30.774Z,8.00
2018-11-02T06:29:59.632Z,7.80
2018-11-02T06:32:28.517Z,7.80
2018-11-02T06:34:57.430Z,7.70
2018-11-02T06:37:26.278Z,7.60
2018-11-02T06:39:55.222Z,7.70
2018-11-02T06:42:24.147Z,7.80
2018-11-02T06:44:53.077Z,7.60
2018-11-02T06:47:21.979Z,8.20
2018-11-02T06:49:50.834Z,8.00
2018-11-02T06:52:19.747Z,8.00
2018-11-02T06:54:48.654Z,7.90
2018-11-02T06:57:17.592Z,8.00
2018-11-02T06:59:46.858Z,8.10
2018-11-02T07:02:15.386Z,8.30
2018-11-02T07:04:44.292Z,8.30
2018-11-02T07:07:13.311Z,8.50
2018-11-02T07:09:42.107Z,8.40
2018-11-02T07:12:11.315Z,8.70
2018-11-02T07:14:40.246Z,8.50
2018-11-02T07:17:09.215Z,8.60
2018-11-02T07:19:38.215Z,8.70
2018-11-02T07:22:07.167Z,8.60
2018-11-02T07:24:36.376Z,8.70
2018-11-02T07:27:05.368Z,8.80
2018-11-02T07:29:34.310Z,9.00
2018-11-02T07:32:04.018Z,8.80
2018-11-02T07:34:33.036Z,8.90
2018-11-02T07:39:10.829Z,9.10
2018-11-02T07:41:39.694Z,9.00
2018-11-02T07:44:08.991Z,8.90
2018-11-02T07:46:38.413Z,9.00
2018-11-02T07:49:07.365Z,9.30
2018-11-02T07:51:36.279Z,9.10
2018-11-02T07:54:05.399Z,9.40
2018-11-02T07:56:34.363Z,9.30
2018-11-02T07:59:03.462Z,9.60
2018-11-02T08:01:32.415Z,9.50
2018-11-02T08:04:01.703Z,9.60
2018-11-02T08:06:30.248Z,9.50
2018-11-02T08:08:59.142Z,9.50
2018-11-02T08:11:28.091Z,9.80
2018-11-02T08:13:56.945Z,9.90
2018-11-02T08:16:25.832Z,10.10
2018-11-02T08:18:54.721Z,10.10
2018-11-02T08:21:23.622Z,10.10
2018-11-02T08:23:52.477Z,10.30
2018-11-02T08:26:21.361Z,10.60
2018-11-02T08:28:50.339Z,10.60
2018-11-02T08:31:19.422Z,10.80
2018-11-02T08:33:48.435Z,11.00
2018-11-02T08:36:17.358Z,11.10
2018-11-02T08:38:46.431Z,11.30
2018-11-02T08:41:15.314Z,11.40
2018-11-02T08:43:44.206Z,11.50
2018-11-02T08:46:13.131Z,11.40
2018-11-02T08:48:42.256Z,11.40
2018-11-02T08:51:11.270Z,11.70
2018-11-02T08:53:40.172Z,12.00
2018-11-02T08:56:09.530Z,12.10
2018-11-02T08:58:38.689Z,12.60
2018-11-02T09:01:07.458Z,12.40
2018-11-02T09:03:36.353Z,12.60
2018-11-02T09:06:05.515Z,12.70
2018-11-02T09:08:34.447Z,13.00
2018-11-02T09:11:03.342Z,13.50
2018-11-02T09:13:32.292Z,14.00
2018-11-02T09:16:01.331Z,14.30
2018-11-02T09:18:30.356Z,14.40
2018-11-02T09:20:59.322Z,14.30
2018-11-02T09:23:28.258Z,14.00
2018-11-02T09:25:57.162Z,13.90
2018-11-02T09:28:26.086Z,13.90
2018-11-02T09:30:54.949Z,13.90
2018-11-02T09:33:23.856Z,13.80
2018-11-02T09:35:52.724Z,14.00
2018-11-02T09:38:21.658Z,14.10
2018-11-02T09:40:50.523Z,14.10
2018-11-02T09:43:19.419Z,13.60
2018-11-02T09:45:48.321Z,13.60
2018-11-02T09:48:17.177Z,13.70
2018-11-02T09:50:46.090Z,13.90
2018-11-02T09:53:14.963Z,14.20
2018-11-02T09:55:43.870Z,14.10
2018-11-02T09:58:12.801Z,14.00
2018-11-02T10:00:41.728Z,14.10
2018-11-02T10:03:10.618Z,14.10
2018-11-02T10:05:39.533Z,14.20
2018-11-02T10:08:09.009Z,14.60
2018-11-02T10:10:37.939Z,14.90
2018-11-02T10:13:06.790Z,14.80
2018-11-02T10:15:35.718Z,14.80
2018-11-02T10:18:04.615Z,14.80
2018-11-02T10:20:33.467Z,14.60
2018-11-02T10:23:02.377Z,14.90
2018-11-02T10:25:31.322Z,15.30
2018-11-02T10:28:00.275Z,15.80
2018-11-02T10:30:29.130Z,15.80
2018-11-02T10:32:58.787Z,15.70
2018-11-02T10:35:27.823Z,15.30
2018-11-02T10:37:58.351Z,15.20
2018-11-02T10:40:27.322Z,14.90
2018-11-02T10:42:58.521Z,14.60
2018-11-02T10:45:32.491Z,14.80
2018-11-02T10:48:02.947Z,14.60
2018-11-02T10:50:31.903Z,14.40
2018-11-02T10:53:00.822Z,14.40
2018-11-02T10:55:29.722Z,14.50
2018-11-02T10:57:58.648Z,14.70
2018-11-02T11:00:33.164Z,14.60
2018-11-02T11:03:02.015Z,14.60
2018-11-02T11:05:31.260Z,14.60
2018-11-02T11:08:00.124Z,14.70
2018-11-02T11:10:29.035Z,14.70
2018-11-02T11:12:58.265Z,14.60
2018-11-02T11:15:26.898Z,14.80
2018-11-02T11:17:56.844Z,14.80
2018-11-02T11:20:25.767Z,14.90
2018-11-02T11:22:54.647Z,14.60
2018-11-02T11:25:23.566Z,14.80
2018-11-02T11:27:52.479Z,15.20
2018-11-02T11:30:21.751Z,15.30
2018-11-02T11:32:51.795Z,15.70
2018-11-02T11:35:21.184Z,16.00
2018-11-02T11:37:50.153Z,16.40
2018-11-02T11:40:20.261Z,16.30
2018-11-02T11:42:49.171Z,16.50
2018-11-02T11:45:19.214Z,15.80
2018-11-02T11:47:48.154Z,15.80
2018-11-02T11:50:20.374Z,15.60
2018-11-02T11:52:50.447Z,16.10
2018-11-02T11:55:19.515Z,16.60
2018-11-02T11:57:48.474Z,17.70
2018-11-02T12:00:19.311Z,17.70
2018-11-02T12:02:48.971Z,18.50
2018-11-02T12:05:19.081Z,19.00
2018-11-02T12:07:48.105Z,19.10
2018-11-02T12:10:20.272Z,18.60
2018-11-02T12:12:49.158Z,18.90
2018-11-02T12:15:19.158Z,20.70
2018-11-02T12:17:48.526Z,21.00
2018-11-02T12:20:21.598Z,19.70
2018-11-02T12:22:52.158Z,18.20
2018-11-02T12:25:21.125Z,17.90
2018-11-02T12:27:50.174Z,17.60
2018-11-02T12:30:19.518Z,19.00
2018-11-02T12:32:48.460Z,21.00
2018-11-02T12:35:18.327Z,22.70
2018-11-02T12:37:47.522Z,24.00
2018-11-02T12:40:18.689Z,24.00
2018-11-02T12:42:48.701Z,23.20
2018-11-02T12:45:18.813Z,24.00
2018-11-02T12:47:48.057Z,23.70
2018-11-02T12:50:21.805Z,24.80
2018-11-02T12:52:51.859Z,25.00
2018-11-02T12:55:21.363Z,24.00
2018-11-02T12:57:50.259Z,24.40
2018-11-02T13:00:20.688Z,25.60
2018-11-02T13:02:50.247Z,26.90
2018-11-02T13:05:19.424Z,25.70
2018-11-02T13:07:48.361Z,26.00
2018-11-02T13:10:18.559Z,25.80
2018-11-02T13:12:47.513Z,24.20
2018-11-02T13:15:17.801Z,24.20
2018-11-02T13:17:47.687Z,25.10
2018-11-02T13:20:17.002Z,25.00
2018-11-02T13:22:46.695Z,25.60
2018-11-02T13:25:16.947Z,24.60
2018-11-02T13:27:46.622Z,21.70
2018-11-02T13:30:15.702Z,20.40
2018-11-02T13:32:44.522Z,18.10
2018-11-02T13:35:15.387Z,17.50
2018-11-02T13:37:45.018Z,17.80
2018-11-02T13:40:15.174Z,17.50
2018-11-02T13:42:44.349Z,17.30
2018-11-02T13:45:14.498Z,17.70
2018-11-02T13:47:43.889Z,17.10
2018-11-02T13:50:13.207Z,17.00
2018-11-02T13:52:42.703Z,17.40
2018-11-02T13:55:12.308Z,18.60
2018-11-02T13:57:41.511Z,20.40
2018-11-02T14:00:16.043Z,20.10
2018-11-02T14:02:44.993Z,21.80
2018-11-02T14:05:15.139Z,21.60
2018-11-02T14:07:44.630Z,21.60
2018-11-02T14:10:14.016Z,23.60
2018-11-02T14:12:43.124Z,22.50
2018-11-02T14:15:15.106Z,22.20
2018-11-02T14:17:44.801Z,23.50
2018-11-02T14:20:14.555Z,23.80
2018-11-02T14:22:43.665Z,23.30
2018-11-02T14:25:14.025Z,23.70
2018-11-02T14:27:43.034Z,24.70
2018-11-02T14:30:13.665Z,23.80
2018-11-02T14:32:42.592Z,21.70
2018-11-02T14:35:11.450Z,21.30
2018-11-02T14:37:41.010Z,23.00
2018-11-02T14:40:10.747Z,24.00
2018-11-02T14:42:40.475Z,20.70
2018-11-02T14:45:12.203Z,18.80
2018-11-02T14:47:41.194Z,18.10
2018-11-02T14:50:11.218Z,17.40
2018-11-02T14:52:40.158Z,17.10
2018-11-02T14:55:09.538Z,17.30
2018-11-02T14:57:38.694Z,18.00
2018-11-02T15:00:09.334Z,17.90
2018-11-02T15:02:38.526Z,17.90
2018-11-02T15:05:09.274Z,17.10
2018-11-02T15:07:39.260Z,16.90
2018-11-02T15:10:08.435Z,16.60
2018-11-02T15:12:37.670Z,16.70
2018-11-02T15:15:07.319Z,16.20
2018-11-02T15:17:36.210Z,16.20
2018-11-02T15:20:07.729Z,15.70
2018-11-02T15:22:36.659Z,15.40
2018-11-02T15:25:06.162Z,14.90
2018-11-02T15:27:35.103Z,14.50
2018-11-02T15:30:04.427Z,14.50
2018-11-02T15:32:33.642Z,14.70
2018-11-02T15:35:02.536Z,14.20
2018-11-02T15:37:31.412Z,13.80
2018-11-02T15:40:00.317Z,14.10
2018-11-02T15:42:29.207Z,14.10
2018-11-02T15:44:58.110Z,13.90
2018-11-02T15:47:26.995Z,14.20
2018-11-02T15:49:55.887Z,14.00
2018-11-02T15:52:24.779Z,13.90
2018-11-02T15:54:53.680Z,13.60
2018-11-02T15:57:22.556Z,13.30
2018-11-02T15:59:51.507Z,13.30
2018-11-02T16:02:20.430Z,13.20
2018-11-02T16:04:49.391Z,13.40
2018-11-02T16:07:18.363Z,12.80
2018-11-02T16:09:47.306Z,13.00
2018-11-02T16:12:16.203Z,13.10
2018-11-02T16:14:45.087Z,13.20
2018-11-02T16:17:13.987Z,13.00
2018-11-02T16:19:42.855Z,13.20
2018-11-02T16:22:11.826Z,12.70
2018-11-02T16:24:40.740Z,12.30
2018-11-02T16:27:09.642Z,11.70
2018-11-02T16:29:40.582Z,12.10
2018-11-02T16:32:10.654Z,12.40
2018-11-02T16:34:39.542Z,12.40
2018-11-02T16:37:08.487Z,12.40
2018-11-02T16:39:37.554Z,12.50
2018-11-02T16:42:06.924Z,12.70
2018-11-02T16:44:35.950Z,12.30
2018-11-02T16:47:04.838Z,12.10
2018-11-02T16:49:34.011Z,11.60
2018-11-02T16:52:03.215Z,11.80
2018-11-02T16:54:32.799Z,12.00
2018-11-02T16:57:01.673Z,12.10
2018-11-02T16:59:30.510Z,12.00
2018-11-02T17:01:59.511Z,11.60
2018-11-02T17:04:28.406Z,11.50
2018-11-02T17:06:57.302Z,12.00
2018-11-02T17:09:26.191Z,11.40
2018-11-02T17:11:55.266Z,11.50
2018-11-02T17:14:24.179Z,11.70
2018-11-02T17:16:53.115Z,11.70
2018-11-02T17:19:22.170Z,11.40
2018-11-02T17:21:51.752Z,11.00
2018-11-02T17:24:20.651Z,11.50
2018-11-02T17:26:49.541Z,10.70
2018-11-02T17:29:18.461Z,11.00
2018-11-02T17:31:47.494Z,11.60
2018-11-02T17:34:16.456Z,11.70
2018-11-02T17:36:45.687Z,11.90
2018-11-02T17:39:14.623Z,11.70
2018-11-02T17:41:43.581Z,11.50
2018-11-02T17:44:12.580Z,11.10
2018-11-02T17:46:41.510Z,10.70
2018-11-02T17:49:10.667Z,11.20
2018-11-02T17:51:39.576Z,11.50
2018-11-02T17:54:08.506Z,11.20
2018-11-02T17:56:37.464Z,11.60
2018-11-02T17:59:06.475Z,11.60
2018-11-02T18:01:35.466Z,11.20
2018-11-02T18:04:04.614Z,11.40
2018-11-02T18:06:33.564Z,11.30
2018-11-02T18:09:02.557Z,11.50
2018-11-02T18:11:31.605Z,11.60
2018-11-02T18:14:00.502Z,11.50
2018-11-02T18:16:29.412Z,11.50
2018-11-02T18:18:58.848Z,11.70
2018-11-02T18:21:27.689Z,11.70
2018-11-02T18:23:56.606Z,11.70
2018-11-02T18:26:25.584Z,11.70
2018-11-02T18:28:54.604Z,11.50
2018-11-02T18:31:23.571Z,11.50
2018-11-02T18:33:52.579Z,11.60
2018-11-02T18:36:21.576Z,11.70
2018-11-02T18:38:50.547Z,11.70
2018-11-02T18:41:19.525Z,11.50
2018-11-02T18:43:48.456Z,11.30
2018-11-02T18:46:17.435Z,11.40
2018-11-02T18:48:46.419Z,11.60
2018-11-02T18:51:15.383Z,11.50
2018-11-02T18:53:44.281Z,11.50
2018-11-02T18:56:13.188Z,11.20
2018-11-02T18:58:42.902Z,11.20
2018-11-02T19:01:11.910Z,10.90
2018-11-02T19:03:40.987Z,10.40
2018-11-02T19:06:10.083Z,10.50
2018-11-02T19:08:38.944Z,10.30
2018-11-02T19:11:07.904Z,10.70
2018-11-02T19:13:36.850Z,10.70
2018-11-02T19:16:06.594Z,10.80
2018-11-02T19:22:07.755Z,10.70
2018-11-02T19:24:36.731Z,10.70
2018-11-02T19:27:06.254Z,10.80
2018-11-02T19:29:35.194Z,11.00
2018-11-02T19:32:04.099Z,11.00
2018-11-02T19:34:33.959Z,11.10
2018-11-02T19:37:02.735Z,10.70
2018-11-02T19:39:31.722Z,11.10
2018-11-02T19:42:01.725Z,11.10
2018-11-02T19:44:30.758Z,11.20
2018-11-02T19:46:59.631Z,11.30
2018-11-02T19:49:28.640Z,10.90
2018-11-02T19:51:57.563Z,10.90
2018-11-02T19:54:26.554Z,11.30
2018-11-02T19:56:55.513Z,11.10
2018-11-02T19:59:24.538Z,11.20
2018-11-02T20:01:53.457Z,11.40
2018-11-02T20:04:22.457Z,10.10
2018-11-02T20:06:51.517Z,9.70
2018-11-02T20:09:20.519Z,9.90
2018-11-02T20:11:49.437Z,10.40
2018-11-02T20:14:18.443Z,10.20
2018-11-02T20:16:47.439Z,11.00
2018-11-02T20:19:16.556Z,11.20
2018-11-02T20:21:45.438Z,11.30
2018-11-02T20:24:14.694Z,11.40
2018-11-02T20:26:43.662Z,11.40
2018-11-02T20:29:12.612Z,11.50
2018-11-02T20:31:41.657Z,10.90
2018-11-02T20:34:10.596Z,11.30
2018-11-02T20:36:39.804Z,11.40
2018-11-02T20:39:11.050Z,11.00
2018-11-02T20:41:39.922Z,11.00
2018-11-02T20:44:08.879Z,9.70
2018-11-02T20:46:37.923Z,9.80
2018-11-02T20:49:07.016Z,10.50
2018-11-02T20:51:36.108Z,10.60
2018-11-02T20:54:05.098Z,10.50
2018-11-02T20:56:34.042Z,10.50
2018-11-02T20:59:03.112Z,10.10
2018-11-02T21:01:32.142Z,11.10
2018-11-02T21:04:01.178Z,11.10
2018-11-02T21:06:30.121Z,11.10
2018-11-02T21:08:59.418Z,11.00
2018-11-02T21:11:28.277Z,11.00
2018-11-02T21:13:57.240Z,11.30
2018-11-02T21:16:26.213Z,11.20
2018-11-02T21:18:55.183Z,11.30
2018-11-02T21:21:24.246Z,10.80
2018-11-02T21:23:53.262Z,10.50
2018-11-02T21:26:22.294Z,10.70
2018-11-02T21:28:51.499Z,11.00
2018-11-02T21:31:20.513Z,11.00
2018-11-02T21:33:49.655Z,10.60
2018-11-02T21:36:18.614Z,10.90
2018-11-02T21:38:47.686Z,11.00
2018-11-02T21:41:16.706Z,11.00
2018-11-02T21:43:45.829Z,10.70
2018-11-02T21:46:14.899Z,11.00
2018-11-02T21:48:43.969Z,11.10
2018-11-02T21:51:13.461Z,11.10
2018-11-02T21:53:42.457Z,11.20
2018-11-02T21:56:11.502Z,11.20
2018-11-02T21:58:40.607Z,11.00
2018-11-02T22:01:09.617Z,11.10
2018-11-02T22:03:38.575Z,10.80
2018-11-02T22:06:07.674Z,10.60
2018-11-02T22:08:36.681Z,10.80
2018-11-02T22:11:05.814Z,11.00
2018-11-02T22:13:34.822Z,11.10
2018-11-02T22:16:03.877Z,11.00
2018-11-02T22:18:32.819Z,11.00
2018-11-02T22:21:01.745Z,11.00
2018-11-02T22:23:30.708Z,11.00
2018-11-02T22:25:59.681Z,10.70
2018-11-02T22:28:28.622Z,11.00
2018-11-02T22:30:57.627Z,11.20
2018-11-02T22:33:26.459Z,11.10
2018-11-02T22:35:55.915Z,11.10
2018-11-02T22:38:24.838Z,11.20
2018-11-02T22:40:53.738Z,11.00
2018-11-02T22:43:22.693Z,10.90
2018-11-02T22:45:51.591Z,11.20
2018-11-02T22:48:26.438Z,11.30
2018-11-02T22:50:56.748Z,11.00
2018-11-02T22:53:25.697Z,11.10
2018-11-02T22:55:54.632Z,11.00
2018-11-02T22:58:23.539Z,10.60
2018-11-02T23:00:57.704Z,10.70
2018-11-02T23:03:26.647Z,10.10
2018-11-02T23:05:55.616Z,10.90
2018-11-02T23:08:24.495Z,11.00
2018-11-02T23:10:54.004Z,10.90
2018-11-02T23:13:22.882Z,10.80
2018-11-02T23:15:51.795Z,10.90
2018-11-02T23:18:20.688Z,11.10
2018-11-02T23:20:49.557Z,11.00
2018-11-02T23:23:18.515Z,11.10
2018-11-02T23:25:47.448Z,10.60
2018-11-02T23:28:16.371Z,10.60
2018-11-02T23:30:45.332Z,10.90
2018-11-02T23:33:14.230Z,11.10
2018-11-02T23:35:43.147Z,11.30
2018-11-02T23:38:12.764Z,11.00
2018-11-02T23:40:41.771Z,11.20
2018-11-02T23:43:10.709Z,11.20
2018-11-02T23:45:39.594Z,11.20
2018-11-02T23:48:14.023Z,11.10
2018-11-02T23:50:42.942Z,10.50
2018-11-02T23:53:11.938Z,10.20
2018-11-02T23:55:40.908Z,10.60
2018-11-02T23:58:09.905Z,10.90
